createdAt,value
2018-06-13T00:00:13.019Z,74.40
2018-06-13T00:02:41.544Z,74.50
2018-06-13T00:05:10.054Z,74.70
2018-06-13T00:07:38.602Z,74.80
2018-06-13T00:10:07.149Z,74.90
2018-06-13T00:12:35.722Z,75.10
2018-06-13T00:15:04.316Z,75.60
2018-06-13T00:17:32.834Z,75.80
2018-06-13T00:20:02.599Z,76.20
2018-06-13T00:25:00.154Z,76.70
2018-06-13T00:27:30.134Z,76.90
2018-06-13T00:29:59.270Z,77.30
2018-06-13T00:32:27.754Z,77.50
2018-06-13T00:34:56.292Z,78.00
2018-06-13T00:37:24.773Z,78.30
2018-06-13T00:39:53.376Z,78.30
2018-06-13T00:42:21.893Z,78.50
2018-06-13T00:47:18.681Z,78.60
2018-06-13T00:49:50.233Z,78.70
2018-06-13T00:52:18.726Z,79.30
2018-06-13T00:54:47.272Z,79.20
2018-06-13T00:59:44.031Z,79.30
2018-06-13T01:02:12.547Z,79.20
2018-06-13T01:04:41.141Z,79.30
2018-06-13T01:07:09.660Z,79.60
2018-06-13T01:09:38.280Z,79.80
2018-06-13T01:12:06.828Z,80.00
2018-06-13T01:14:35.328Z,80.00
2018-06-13T01:17:03.890Z,80.90
2018-06-13T01:19:32.387Z,80.10
2018-06-13T01:24:30.705Z,80.40
2018-06-13T01:27:00.181Z,80.50
2018-06-13T01:31:57.601Z,80.50
2018-06-13T01:34:26.190Z,80.60
2018-06-13T01:36:54.704Z,80.70
2018-06-13T01:39:23.252Z,80.80
2018-06-13T01:41:51.793Z,80.80
2018-06-13T01:44:20.282Z,81.00
2018-06-13T01:46:48.820Z,81.00
2018-06-13T01:49:17.306Z,81.10
2018-06-13T01:51:45.851Z,81.10
2018-06-13T01:54:14.342Z,81.20
2018-06-13T01:56:42.913Z,81.30
2018-06-13T01:59:11.420Z,81.40
2018-06-13T02:01:39.969Z,81.50
2018-06-13T02:04:08.501Z,81.60
2018-06-13T02:06:37.142Z,81.40
2018-06-13T02:09:07.266Z,81.40
2018-06-13T02:11:35.826Z,81.40
2018-06-13T02:14:04.317Z,81.50
2018-06-13T02:16:32.834Z,81.50
2018-06-13T02:19:02.473Z,81.60
2018-06-13T02:24:00.545Z,81.90
2018-06-13T02:26:29.086Z,82.00
2018-06-13T02:28:57.630Z,82.00
2018-06-13T02:33:54.941Z,82.10
2018-06-13T02:36:23.498Z,82.20
2018-06-13T02:38:52.066Z,82.20
2018-06-13T02:43:48.864Z,82.60
2018-06-13T02:46:17.384Z,83.40
2018-06-13T02:48:45.928Z,82.80
2018-06-13T02:51:14.484Z,82.70
2018-06-13T02:53:43.054Z,82.70
2018-06-13T02:58:39.812Z,83.20
2018-06-13T03:01:08.379Z,83.20
2018-06-13T03:03:36.882Z,83.10
2018-06-13T03:06:05.436Z,83.20
2018-06-13T03:08:33.929Z,83.30
2018-06-13T03:13:32.188Z,83.50
2018-06-13T03:16:01.933Z,83.50
2018-06-13T03:30:54.756Z,83.80
2018-06-13T03:33:23.315Z,83.90
2018-06-13T03:35:51.836Z,84.70
2018-06-13T03:40:48.661Z,84.10
2018-06-13T03:43:17.212Z,84.20
2018-06-13T03:45:45.719Z,84.40
2018-06-13T03:48:14.277Z,84.00
2018-06-13T03:50:42.776Z,84.20
2018-06-13T03:53:11.264Z,84.40
2018-06-13T03:55:39.828Z,84.30
2018-06-13T03:58:08.337Z,84.40
2018-06-13T04:00:36.890Z,84.50
2018-06-13T04:03:05.587Z,84.20
2018-06-13T04:05:34.157Z,84.30
2018-06-13T04:08:02.692Z,84.50
2018-06-13T04:13:00.017Z,84.50
2018-06-13T04:15:29.020Z,84.40
2018-06-13T04:17:57.520Z,84.20
2018-06-13T04:20:26.066Z,84.30
2018-06-13T04:22:54.597Z,84.30
2018-06-13T04:25:23.125Z,84.30
2018-06-13T04:27:51.706Z,84.40
2018-06-13T04:30:20.252Z,84.60
2018-06-13T04:35:17.116Z,84.10
2018-06-13T04:40:13.940Z,83.80
2018-06-13T04:42:42.902Z,83.80
2018-06-13T04:45:11.403Z,83.80
2018-06-13T04:47:39.994Z,83.30
2018-06-13T04:50:08.549Z,83.50
2018-06-13T04:52:37.363Z,83.20
2018-06-13T04:55:05.893Z,83.10
2018-06-13T04:57:34.425Z,83.20
2018-06-13T05:00:03.010Z,82.70
2018-06-13T05:02:31.639Z,82.80
2018-06-13T05:07:29.865Z,82.30
2018-06-13T05:09:58.526Z,82.10
2018-06-13T05:12:27.031Z,82.50
2018-06-13T05:14:55.615Z,82.50
2018-06-13T05:17:24.150Z,82.80
2018-06-13T05:22:21.045Z,82.80
2018-06-13T05:24:49.580Z,82.30
2018-06-13T05:27:18.072Z,83.30
2018-06-13T05:32:14.976Z,83.00
2018-06-13T05:34:43.507Z,83.30
2018-06-13T05:39:40.351Z,83.20
2018-06-13T05:42:08.908Z,83.20
2018-06-13T05:44:37.484Z,83.40
2018-06-13T05:47:06.017Z,83.70
2018-06-13T05:49:34.534Z,83.90
2018-06-13T05:52:03.036Z,83.90
2018-06-13T05:54:31.661Z,83.80
2018-06-13T05:59:31.045Z,83.80
2018-06-13T06:02:00.045Z,83.40
2018-06-13T06:04:28.723Z,83.10
2018-06-13T06:06:57.269Z,83.20
2018-06-13T06:09:25.786Z,82.70
2018-06-13T06:11:54.375Z,82.80
2018-06-13T06:14:23.309Z,83.20
2018-06-13T06:19:33.319Z,83.20
2018-06-13T06:22:07.626Z,83.10
2018-06-13T06:24:36.247Z,83.70
2018-06-13T06:27:16.660Z,84.60
2018-06-13T06:29:53.929Z,82.80
2018-06-13T06:32:27.191Z,82.70
2018-06-13T06:34:58.652Z,82.20
2018-06-13T06:37:27.239Z,82.50
2018-06-13T06:39:55.830Z,81.50
2018-06-13T06:45:13.540Z,80.30
2018-06-13T06:47:56.948Z,80.20
2018-06-13T06:50:33.307Z,80.50
2018-06-13T06:53:02.280Z,79.80
2018-06-13T06:55:32.250Z,80.10
2018-06-13T06:58:02.120Z,79.60
2018-06-13T12:05:56.832Z,74.60
2018-06-13T12:08:25.427Z,74.60
2018-06-13T12:10:54.410Z,74.30
2018-06-13T12:13:23.186Z,75.60
2018-06-13T12:15:52.467Z,75.60
2018-06-13T12:18:21.540Z,77.00
2018-06-13T12:20:50.930Z,77.90
2018-06-13T12:25:48.620Z,79.70
2018-06-13T12:28:17.332Z,78.60
2018-06-13T12:30:46.120Z,78.40
2018-06-13T12:33:16.096Z,79.20
2018-06-13T12:35:44.659Z,79.30
2018-06-13T12:38:13.188Z,79.20
2018-06-13T12:43:09.959Z,77.50
2018-06-13T12:45:38.546Z,78.10
2018-06-13T12:48:07.059Z,76.30
2018-06-13T12:50:35.605Z,76.60
2018-06-13T12:55:32.432Z,76.70
2018-06-13T12:58:01.907Z,78.30
2018-06-13T13:00:31.155Z,78.10
2018-06-13T13:03:00.112Z,80.10
2018-06-13T13:05:29.118Z,80.00
2018-06-13T13:07:57.624Z,81.00
2018-06-13T13:12:54.436Z,82.10
2018-06-13T13:17:51.343Z,82.40
2018-06-13T13:22:48.209Z,83.80
2018-06-13T13:27:45.214Z,79.80
2018-06-13T13:30:13.693Z,81.00
2018-06-13T13:32:42.278Z,80.40
2018-06-13T13:35:10.806Z,80.80
2018-06-13T13:40:07.632Z,81.70
2018-06-13T13:42:36.215Z,81.20
2018-06-13T13:45:04.884Z,82.00
2018-06-13T13:47:33.430Z,81.80
2018-06-13T13:52:30.972Z,81.20
2018-06-13T13:55:00.299Z,81.30
2018-06-13T13:59:58.303Z,81.00
2018-06-13T14:02:26.873Z,81.60
2018-06-13T14:07:23.643Z,81.00
2018-06-13T14:09:52.163Z,81.60
2018-06-13T14:12:20.813Z,82.20
2018-06-13T14:14:49.391Z,80.80
2018-06-13T14:17:17.907Z,81.60
2018-06-13T14:24:43.189Z,79.00
2018-06-13T14:29:40.051Z,79.00
2018-06-13T14:32:08.577Z,79.00
2018-06-13T14:34:37.145Z,78.50
2018-06-13T14:37:05.691Z,79.30
2018-06-13T14:42:02.505Z,77.20
2018-06-13T14:44:32.120Z,75.70
2018-06-13T14:47:01.687Z,76.20
2018-06-13T14:49:30.959Z,75.80
2018-06-13T14:52:00.520Z,76.70
2018-06-13T14:54:30.279Z,75.60
2018-06-13T14:57:00.235Z,76.10
2018-06-13T14:59:29.256Z,76.60
2018-06-13T15:01:57.947Z,76.60
2018-06-13T15:04:29.753Z,77.60
2018-06-13T15:11:56.019Z,76.20
2018-06-13T15:14:24.651Z,75.70
2018-06-13T15:16:53.233Z,76.00
2018-06-13T15:19:21.875Z,76.60
2018-06-13T15:21:50.414Z,75.50
2018-06-13T15:24:18.945Z,76.00
2018-06-13T15:26:47.702Z,75.30
2018-06-13T15:29:16.228Z,75.30
2018-06-13T15:31:44.778Z,75.00
2018-06-13T15:36:41.626Z,74.70
2018-06-13T15:41:41.086Z,75.40
2018-06-13T15:44:09.744Z,75.50
2018-06-13T15:46:38.304Z,75.50
2018-06-13T15:49:06.902Z,75.50
2018-06-13T15:54:03.764Z,75.40
2018-06-13T16:01:32.260Z,76.20
2018-06-13T16:04:00.782Z,75.60
2018-06-13T16:06:30.753Z,77.10
2018-06-13T16:09:00.088Z,77.00
2018-06-13T16:11:29.228Z,77.20
2018-06-13T16:13:57.786Z,76.40
2018-06-13T16:16:26.341Z,76.30
2018-06-13T16:21:23.163Z,76.90
2018-06-13T16:26:20.139Z,76.10
2018-06-13T16:28:48.672Z,76.50
2018-06-13T16:31:17.228Z,75.80
2018-06-13T16:33:45.796Z,77.10
2018-06-13T16:41:11.131Z,77.90
2018-06-13T16:46:07.961Z,78.00
2018-06-13T16:48:36.634Z,77.90
2018-06-13T16:51:16.507Z,77.00
2018-06-13T16:53:56.224Z,77.50
2018-06-13T16:56:24.780Z,76.90
2018-06-13T16:58:53.422Z,77.70
2018-06-13T17:01:22.579Z,77.40
2018-06-13T17:03:51.366Z,78.30
2018-06-13T17:06:20.060Z,77.80
2018-06-13T17:08:48.578Z,77.50
2018-06-13T17:11:17.136Z,77.40
2018-06-13T17:13:45.748Z,77.70
2018-06-13T17:16:14.361Z,77.40
2018-06-13T17:18:42.952Z,77.40
2018-06-13T17:21:11.662Z,77.90
2018-06-13T17:23:40.288Z,78.00
2018-06-13T17:26:08.837Z,77.90
2018-06-13T17:28:37.554Z,78.30
2018-06-13T17:31:06.144Z,78.00
2018-06-13T17:36:05.430Z,78.90
2018-06-13T17:38:33.937Z,78.50
2018-06-13T17:41:02.511Z,78.60
2018-06-13T17:43:32.103Z,79.10
2018-06-13T17:46:01.797Z,79.20
2018-06-13T17:48:31.020Z,79.50
2018-06-13T17:51:02.332Z,79.50
2018-06-13T17:53:31.660Z,79.80
2018-06-13T17:56:00.273Z,79.90
2018-06-13T18:00:57.768Z,80.00
2018-06-13T18:03:26.379Z,79.60
2018-06-13T18:05:55.459Z,79.80
2018-06-13T18:08:24.012Z,79.80
2018-06-13T18:13:21.075Z,80.10
2018-06-13T18:18:18.032Z,80.40
2018-06-13T18:20:46.621Z,80.30
2018-06-13T18:25:43.444Z,80.50
2018-06-13T18:28:12.063Z,80.90
2018-06-13T18:30:40.977Z,81.10
2018-06-13T18:33:09.600Z,81.60
2018-06-13T18:35:38.222Z,81.60
2018-06-13T18:38:06.936Z,83.60
2018-06-13T18:40:35.513Z,82.50
2018-06-13T18:43:04.541Z,82.70
2018-06-13T18:45:33.192Z,82.80
2018-06-13T18:48:02.735Z,83.00
2018-06-13T18:50:33.512Z,83.80
2018-06-13T18:55:31.546Z,83.90
2018-06-13T18:58:01.804Z,84.40
2018-06-13T19:00:31.688Z,84.30
2018-06-13T19:05:31.788Z,84.10
2018-06-13T19:08:01.177Z,84.20
2018-06-13T19:13:00.090Z,84.90
2018-06-13T19:15:29.237Z,84.80
2018-06-13T19:17:57.879Z,85.00
2018-06-13T19:20:26.640Z,84.90
2018-06-13T19:27:52.140Z,85.20
2018-06-13T19:30:20.935Z,85.20
2018-06-13T19:32:49.483Z,85.10
2018-06-13T19:36:42.264Z,85.50
2018-06-13T19:39:11.233Z,86.20
2018-06-13T19:41:39.854Z,86.40
2018-06-13T19:44:08.404Z,86.30
2018-06-13T19:46:37.056Z,86.30
2018-06-13T19:49:05.977Z,86.30
2018-06-13T19:51:35.220Z,86.60
2018-06-13T19:54:09.121Z,87.10
2018-06-13T19:56:38.318Z,87.00
2018-06-13T19:59:06.888Z,86.40
2018-06-13T20:01:35.423Z,86.40
2018-06-13T20:06:39.088Z,84.90
2018-06-13T20:09:08.797Z,84.60
2018-06-13T20:11:37.442Z,84.40
2018-06-13T20:14:11.299Z,84.70
2018-06-13T20:17:48.905Z,84.60
2018-06-13T20:20:17.541Z,83.30
2018-06-13T20:25:20.064Z,83.40
2018-06-13T20:27:53.975Z,83.50
2018-06-13T20:30:28.143Z,83.10
2018-06-13T20:32:56.667Z,83.40
2018-06-13T20:35:25.266Z,83.10
2018-06-13T20:37:53.801Z,83.20
2018-06-13T20:40:22.367Z,83.90
2018-06-13T20:45:19.185Z,83.30
2018-06-13T20:47:47.696Z,82.80
2018-06-13T20:50:16.279Z,82.70
2018-06-13T20:52:44.774Z,82.60
2018-06-13T20:57:41.617Z,82.00
2018-06-13T21:00:10.182Z,81.50
2018-06-13T21:02:38.780Z,80.50
2018-06-13T21:05:07.390Z,79.60
2018-06-13T21:10:04.279Z,78.70
2018-06-13T21:12:32.874Z,78.20
2018-06-13T21:15:02.617Z,78.50
2018-06-13T21:17:32.731Z,77.80
2018-06-13T21:20:02.308Z,77.60
2018-06-13T21:22:32.331Z,78.00
2018-06-13T21:25:00.864Z,78.60
2018-06-13T21:29:57.752Z,78.40
2018-06-13T21:32:27.086Z,77.60
2018-06-13T21:34:55.739Z,77.60
2018-06-13T21:37:24.204Z,77.90
2018-06-13T21:39:52.967Z,77.90
2018-06-13T21:42:21.481Z,77.30
2018-06-13T21:44:50.053Z,77.60
2018-06-13T21:49:48.022Z,77.80
2018-06-13T21:54:44.887Z,77.70
2018-06-13T21:59:41.700Z,77.70
2018-06-13T22:02:10.187Z,77.60
2018-06-13T22:04:38.797Z,77.50
2018-06-13T22:07:08.014Z,77.10
2018-06-13T22:09:36.865Z,77.20
2018-06-13T22:12:06.728Z,77.10
2018-06-13T22:14:56.418Z,76.60
2018-06-13T22:17:25.458Z,75.60
2018-06-13T22:19:55.393Z,75.00
2018-06-13T22:22:24.179Z,75.40
2018-06-13T22:24:54.097Z,75.90
2018-06-13T22:29:53.187Z,75.40
2018-06-13T22:32:21.741Z,76.00
2018-06-13T22:34:51.833Z,76.80
2018-06-13T22:37:20.457Z,76.70
2018-06-13T22:42:18.386Z,77.80
2018-06-13T22:44:47.746Z,78.20
2018-06-13T22:47:16.555Z,78.90
2018-06-13T22:49:45.275Z,79.00
2018-06-13T22:52:14.187Z,79.50
2018-06-13T22:54:42.848Z,79.50
2018-06-13T22:59:40.304Z,79.90
2018-06-13T23:04:39.275Z,80.00
2018-06-13T23:07:07.853Z,80.30
2018-06-13T23:09:36.395Z,80.30
2018-06-13T23:12:05.008Z,80.40
2018-06-13T23:17:25.926Z,80.60
2018-06-13T23:19:54.483Z,80.70
2018-06-13T23:22:23.099Z,80.50
2018-06-13T23:24:51.627Z,80.00
2018-06-13T23:27:20.133Z,80.10
2018-06-13T23:29:48.718Z,80.30
2018-06-13T23:32:17.241Z,79.70
2018-06-13T23:34:45.835Z,78.80
2018-06-13T23:37:14.406Z,78.40
2018-06-13T23:39:42.926Z,78.10
2018-06-13T23:42:12.286Z,78.10
2018-06-13T23:44:40.810Z,77.10
2018-06-13T23:49:37.761Z,77.00
2018-06-13T23:52:06.322Z,77.20
2018-06-13T23:54:34.921Z,77.60
2018-06-13T23:57:03.475Z,77.90
2018-06-13T23:59:32.043Z,78.20
